createdAt,value
2023-02-25T00:00:35.153Z,4.06
2023-02-25T00:03:02.164Z,4.10
2023-02-25T00:05:31.820Z,4.14
2023-02-25T00:07:59.761Z,4.10
2023-02-25T00:10:26.815Z,4.10
2023-02-25T00:12:53.942Z,4.07
2023-02-25T00:15:20.718Z,4.03
2023-02-25T00:17:49.892Z,4.02
2023-02-25T00:20:18.510Z,3.98
2023-02-25T00:22:45.499Z,4.04
2023-02-25T00:25:13.878Z,3.99
2023-02-25T00:27:40.765Z,3.89
2023-02-25T00:30:10.895Z,3.85
2023-02-25T00:32:38.417Z,3.85
2023-02-25T00:35:05.820Z,3.79
2023-02-25T00:37:32.711Z,3.64
2023-02-25T00:39:59.457Z,3.81
2023-02-25T00:42:27.300Z,3.78
2023-02-25T00:44:54.084Z,3.62
2023-02-25T00:47:20.990Z,3.48
2023-02-25T00:49:48.759Z,3.73
2023-02-25T00:52:16.472Z,3.53
2023-02-25T00:54:43.464Z,3.60
2023-02-25T00:57:10.400Z,3.36
2023-02-25T00:59:37.294Z,3.31
2023-02-25T01:02:04.805Z,3.35
2023-02-25T01:04:32.129Z,3.31
2023-02-25T01:07:00.141Z,3.38
2023-02-25T01:09:27.504Z,3.29
2023-02-25T01:11:55.357Z,3.45
2023-02-25T01:14:25.090Z,3.44
2023-02-25T01:16:53.095Z,3.45
2023-02-25T01:19:25.448Z,3.44
2023-02-25T01:21:58.126Z,3.51
2023-02-25T01:24:30.268Z,3.51
2023-02-25T01:26:59.747Z,3.49
2023-02-25T01:29:29.647Z,3.50
2023-02-25T01:31:59.378Z,3.44
2023-02-25T01:34:26.908Z,3.40
2023-02-25T01:36:53.727Z,3.37
2023-02-25T01:39:22.818Z,3.37
2023-02-25T01:41:53.198Z,3.27
2023-02-25T01:44:21.848Z,3.29
2023-02-25T01:46:54.248Z,3.25
2023-02-25T01:49:30.132Z,3.25
2023-02-25T01:52:03.068Z,3.11
2023-02-25T01:54:31.258Z,3.19
2023-02-25T01:56:58.565Z,3.16
2023-02-25T01:59:28.981Z,3.09
2023-02-25T02:01:56.495Z,3.14
2023-02-25T02:04:26.161Z,3.22
2023-02-25T02:06:55.562Z,3.19
2023-02-25T02:09:25.820Z,3.14
2023-02-25T02:11:52.676Z,3.20
2023-02-25T02:14:29.788Z,3.12
2023-02-25T02:17:06.077Z,3.21
2023-02-25T02:19:41.908Z,3.15
2023-02-25T02:22:24.428Z,3.15
2023-02-25T02:25:16.069Z,3.12
2023-02-25T02:28:23.196Z,3.05
2023-02-25T02:31:25.359Z,2.96
2023-02-25T02:34:16.733Z,3.05
2023-02-25T02:36:56.695Z,2.98
2023-02-25T02:39:26.525Z,2.90
2023-02-25T02:41:58.520Z,2.91
2023-02-25T02:44:33.144Z,2.84
2023-02-25T02:47:18.917Z,2.82
2023-02-25T02:49:51.818Z,2.80
2023-02-25T02:52:27.244Z,2.58
2023-02-25T02:55:10.014Z,2.79
2023-02-25T02:57:41.535Z,2.72
2023-02-25T03:00:17.871Z,2.79
2023-02-25T03:02:57.620Z,2.76
2023-02-25T03:05:27.772Z,2.71
2023-02-25T03:08:21.508Z,2.64
2023-02-25T03:10:49.280Z,2.69
2023-02-25T03:13:16.761Z,2.66
2023-02-25T03:15:44.495Z,2.70
2023-02-25T03:18:23.352Z,2.64
2023-02-25T03:20:52.372Z,2.66
2023-02-25T03:23:23.900Z,2.69
2023-02-25T03:26:01.002Z,2.63
2023-02-25T03:28:33.063Z,2.64
2023-02-25T03:31:08.325Z,2.68
2023-02-25T03:33:48.600Z,2.71
2023-02-25T03:36:25.170Z,2.67
2023-02-25T03:38:57.901Z,2.68
2023-02-25T03:41:39.705Z,2.51
2023-02-25T03:44:11.593Z,2.68
2023-02-25T03:46:43.255Z,2.68
2023-02-25T03:49:21.293Z,2.67
2023-02-25T03:51:49.644Z,2.69
2023-02-25T03:54:16.800Z,2.73
2023-02-25T03:56:51.829Z,2.68
2023-02-25T03:59:20.695Z,2.80
2023-02-25T04:01:50.401Z,2.72
2023-02-25T04:04:17.402Z,2.68
2023-02-25T04:06:44.174Z,2.60
2023-02-25T04:09:11.147Z,2.55
2023-02-25T04:11:37.969Z,2.41
2023-02-25T04:14:04.922Z,2.43
2023-02-25T04:16:32.356Z,2.40
2023-02-25T04:19:00.017Z,2.39
2023-02-25T04:21:29.786Z,2.41
2023-02-25T04:23:57.103Z,2.32
2023-02-25T04:26:24.443Z,2.31
2023-02-25T04:28:51.631Z,2.23
2023-02-25T04:31:18.665Z,2.30
2023-02-25T04:33:49.948Z,2.17
2023-02-25T04:36:25.196Z,2.24
2023-02-25T04:38:52.409Z,2.15
2023-02-25T04:41:19.543Z,2.19
2023-02-25T04:43:46.421Z,2.21
2023-02-25T04:46:13.412Z,2.26
2023-02-25T04:48:40.641Z,2.24
2023-02-25T04:51:08.173Z,2.22
2023-02-25T04:53:35.519Z,2.25
2023-02-25T04:56:07.420Z,2.21
2023-02-25T04:58:36.066Z,2.17
2023-02-25T05:01:06.314Z,2.12
2023-02-25T05:03:33.999Z,2.18
2023-02-25T05:06:02.240Z,2.13
2023-02-25T05:08:29.546Z,2.16
2023-02-25T05:10:56.408Z,2.11
2023-02-25T05:13:23.793Z,2.13
2023-02-25T05:15:50.859Z,2.14
2023-02-25T05:18:17.764Z,2.06
2023-02-25T05:20:46.591Z,2.16
2023-02-25T05:23:14.460Z,2.15
2023-02-25T05:25:43.965Z,2.13
2023-02-25T05:28:11.571Z,2.27
2023-02-25T05:30:39.277Z,2.31
2023-02-25T05:33:07.069Z,2.42
2023-02-25T05:35:34.044Z,2.40
2023-02-25T05:38:01.336Z,2.39
2023-02-25T05:40:28.587Z,2.35
2023-02-25T05:42:55.327Z,2.45
2023-02-25T05:45:22.148Z,2.46
2023-02-25T05:47:48.981Z,2.51
2023-02-25T05:50:15.978Z,2.53
2023-02-25T05:52:42.890Z,2.57
2023-02-25T05:55:10.497Z,2.72
2023-02-25T05:57:37.706Z,2.73
2023-02-25T06:00:09.732Z,2.87
2023-02-25T06:02:39.580Z,2.91
2023-02-25T06:05:07.213Z,3.01
2023-02-25T06:07:34.219Z,3.13
2023-02-25T06:10:01.933Z,3.28
2023-02-25T06:12:30.524Z,3.33
2023-02-25T06:14:57.620Z,3.49
2023-02-25T06:17:27.069Z,3.62
2023-02-25T06:19:54.000Z,3.81
2023-02-25T06:22:22.285Z,3.82
2023-02-25T06:24:49.528Z,3.92
2023-02-25T06:27:17.092Z,4.07
2023-02-25T06:29:48.142Z,4.16
2023-02-25T06:32:16.621Z,4.32
2023-02-25T06:34:43.578Z,4.44
2023-02-25T06:37:10.813Z,4.56
2023-02-25T06:39:37.769Z,4.74
2023-02-25T06:42:04.780Z,4.99
2023-02-25T06:44:31.583Z,5.17
2023-02-25T06:46:58.783Z,5.23
2023-02-25T06:49:25.633Z,5.47
2023-02-25T06:51:52.894Z,5.73
2023-02-25T06:54:19.966Z,5.82
2023-02-25T06:56:47.014Z,6.02
2023-02-25T06:59:13.797Z,6.17
2023-02-25T07:01:42.014Z,6.33
2023-02-25T07:04:14.798Z,6.44
2023-02-25T07:06:41.971Z,6.67
2023-02-25T07:09:08.958Z,6.87
2023-02-25T07:11:36.649Z,7.13
2023-02-25T07:14:05.277Z,7.35
2023-02-25T07:16:34.362Z,7.49
2023-02-25T07:19:02.431Z,7.74
2023-02-25T07:21:31.117Z,7.97
2023-02-25T07:23:58.862Z,8.13
2023-02-25T07:26:28.510Z,8.27
2023-02-25T07:28:59.810Z,8.44
2023-02-25T07:31:28.767Z,8.66
2023-02-25T07:33:56.176Z,8.84
2023-02-25T07:36:23.786Z,9.04
2023-02-25T07:38:50.684Z,9.24
2023-02-25T07:41:19.141Z,9.44
2023-02-25T07:43:46.321Z,9.61
2023-02-25T07:46:13.688Z,9.75
2023-02-25T07:48:42.668Z,9.83
2023-02-25T07:51:18.835Z,10.01
2023-02-25T07:53:47.110Z,10.25
2023-02-25T07:56:15.330Z,10.44
2023-02-25T07:58:42.628Z,10.64
2023-02-25T08:01:10.600Z,10.79
2023-02-25T08:03:38.311Z,10.89
2023-02-25T08:06:08.729Z,11.09
2023-02-25T08:08:37.424Z,11.17
2023-02-25T08:11:09.021Z,11.39
2023-02-25T08:13:36.708Z,11.60
2023-02-25T08:16:08.297Z,11.76
2023-02-25T08:18:35.765Z,11.93
2023-02-25T08:21:03.165Z,12.08
2023-02-25T08:23:30.833Z,12.26
2023-02-25T08:26:00.446Z,12.43
2023-02-25T08:28:34.331Z,12.61
2023-02-25T08:31:02.520Z,12.75
2023-02-25T08:33:30.419Z,12.92
2023-02-25T08:36:09.680Z,13.03
2023-02-25T08:38:38.222Z,13.35
2023-02-25T08:41:06.613Z,13.46
2023-02-25T08:43:33.832Z,13.52
2023-02-25T08:46:01.478Z,13.56
2023-02-25T08:48:29.438Z,13.59
2023-02-25T08:50:56.304Z,13.61
2023-02-25T08:53:23.424Z,13.84
2023-02-25T08:55:53.828Z,14.02
2023-02-25T08:58:20.959Z,14.18
2023-02-25T09:00:50.138Z,14.31
2023-02-25T09:03:17.386Z,14.48
2023-02-25T09:05:50.564Z,14.65
2023-02-25T09:08:17.373Z,14.84
2023-02-25T09:10:50.186Z,14.86
2023-02-25T09:13:17.998Z,14.94
2023-02-25T09:15:44.906Z,14.95
2023-02-25T09:18:12.058Z,14.99
2023-02-25T09:20:39.177Z,15.00
2023-02-25T09:23:06.263Z,15.03
2023-02-25T09:25:32.996Z,15.08
2023-02-25T09:28:00.024Z,15.25
2023-02-25T09:30:26.933Z,15.50
2023-02-25T09:32:54.163Z,15.73
2023-02-25T09:35:21.112Z,16.13
2023-02-25T09:37:47.930Z,16.39
2023-02-25T09:40:22.798Z,16.69
2023-02-25T09:43:08.017Z,17.05
2023-02-25T09:45:36.633Z,17.29
2023-02-25T09:48:17.670Z,17.65
2023-02-25T09:50:52.254Z,17.59
2023-02-25T09:53:26.192Z,17.89
2023-02-25T09:55:53.232Z,18.04
2023-02-25T09:58:46.979Z,18.10
2023-02-25T10:01:30.112Z,18.18
2023-02-25T10:04:18.250Z,18.37
2023-02-25T10:06:50.523Z,18.60
2023-02-25T10:09:51.629Z,18.76
2023-02-25T10:12:24.416Z,18.84
2023-02-25T10:15:13.031Z,18.91
2023-02-25T10:18:04.425Z,19.14
2023-02-25T10:20:49.355Z,19.10
2023-02-25T10:23:28.346Z,19.01
2023-02-25T10:26:07.495Z,19.17
2023-02-25T10:28:36.004Z,19.35
2023-02-25T10:31:09.486Z,19.42
2023-02-25T10:33:40.554Z,19.44
2023-02-25T10:36:15.033Z,19.51
2023-02-25T10:38:48.016Z,19.49
2023-02-25T10:41:15.300Z,19.82
2023-02-25T10:43:43.809Z,19.92
2023-02-25T10:46:18.938Z,19.95
2023-02-25T10:48:58.130Z,20.03
2023-02-25T10:51:27.561Z,20.01
2023-02-25T10:53:57.451Z,20.25
2023-02-25T10:56:27.463Z,20.23
2023-02-25T10:59:04.769Z,20.37
2023-02-25T11:01:39.602Z,20.04
2023-02-25T11:04:13.590Z,20.18
2023-02-25T11:06:42.869Z,19.96
2023-02-25T11:09:18.802Z,19.91
2023-02-25T11:11:57.951Z,19.97
2023-02-25T11:14:31.183Z,19.79
2023-02-25T11:17:13.113Z,19.76
2023-02-25T11:20:01.769Z,19.94
2023-02-25T11:22:37.973Z,20.00
2023-02-25T11:25:15.830Z,20.13
2023-02-25T11:27:45.525Z,20.47
2023-02-25T11:30:12.570Z,20.74
2023-02-25T11:32:54.491Z,20.63
2023-02-25T11:35:30.604Z,20.51
2023-02-25T11:37:59.700Z,20.74
2023-02-25T11:40:33.054Z,20.55
2023-02-25T11:43:17.185Z,20.28
2023-02-25T11:45:57.404Z,19.96
2023-02-25T11:48:45.475Z,19.77
2023-02-25T11:51:35.670Z,19.66
2023-02-25T11:54:38.185Z,19.53
2023-02-25T11:57:14.588Z,19.54
2023-02-25T12:00:11.662Z,19.47
2023-02-25T12:03:15.558Z,19.66
2023-02-25T12:06:07.670Z,19.79
2023-02-25T12:08:50.364Z,19.84
2023-02-25T12:11:58.466Z,19.86
2023-02-25T12:15:19.639Z,19.89
2023-02-25T12:17:58.507Z,19.75
2023-02-25T12:20:29.149Z,19.68
2023-02-25T12:23:15.003Z,19.63
2023-02-25T12:25:47.901Z,19.66
2023-02-25T12:28:32.907Z,19.60
2023-02-25T12:31:36.606Z,19.60
2023-02-25T12:34:25.002Z,19.62
2023-02-25T12:36:54.838Z,19.75
2023-02-25T12:40:03.420Z,19.55
2023-02-25T12:42:57.722Z,19.74
2023-02-25T12:45:30.926Z,19.68
2023-02-25T12:48:03.815Z,19.60
2023-02-25T12:50:42.949Z,19.56
2023-02-25T12:53:47.246Z,19.53
2023-02-25T12:56:35.766Z,19.60
2023-02-25T12:59:13.616Z,19.58
2023-02-25T13:02:02.192Z,19.39
2023-02-25T13:04:50.634Z,19.19
2023-02-25T13:07:48.378Z,19.12
2023-02-25T13:10:41.815Z,18.89
2023-02-25T13:13:46.282Z,18.96
2023-02-25T13:16:19.306Z,18.85
2023-02-25T13:18:55.115Z,18.75
2023-02-25T13:21:41.060Z,18.77
2023-02-25T13:25:05.174Z,18.72
2023-02-25T13:27:53.856Z,18.72
2023-02-25T13:30:32.749Z,18.69
2023-02-25T13:33:46.261Z,18.56
2023-02-25T13:36:32.850Z,18.45
2023-02-25T13:39:28.576Z,18.45
2023-02-25T13:42:04.502Z,18.41
2023-02-25T13:44:36.120Z,17.87
2023-02-25T13:47:37.229Z,18.25
2023-02-25T13:50:28.480Z,18.32
2023-02-25T13:53:34.957Z,18.26
2023-02-25T13:56:01.920Z,18.21
2023-02-25T13:59:02.747Z,18.13
2023-02-25T14:01:38.011Z,18.18
2023-02-25T14:04:09.013Z,18.19
2023-02-25T14:07:05.939Z,18.01
2023-02-25T14:09:46.287Z,17.99
2023-02-25T14:12:22.440Z,18.00
2023-02-25T14:15:23.679Z,17.92
2023-02-25T14:18:10.860Z,17.79
2023-02-25T14:20:46.843Z,17.79
2023-02-25T14:23:27.911Z,17.64
2023-02-25T14:26:09.931Z,17.75
2023-02-25T14:29:07.645Z,17.62
2023-02-25T14:31:49.720Z,17.51
2023-02-25T14:34:56.270Z,17.61
2023-02-25T14:37:29.417Z,17.57
2023-02-25T14:39:59.278Z,17.55
2023-02-25T14:42:49.558Z,17.60
2023-02-25T14:45:29.805Z,17.67
2023-02-25T14:48:10.804Z,17.76
2023-02-25T14:50:52.491Z,17.68
2023-02-25T14:53:41.443Z,17.53
2023-02-25T14:56:08.690Z,17.54
2023-02-25T14:59:03.703Z,17.44
2023-02-25T15:02:13.105Z,17.25
2023-02-25T15:05:23.952Z,17.19
2023-02-25T15:08:25.611Z,17.16
2023-02-25T15:11:31.159Z,17.07
2023-02-25T15:14:22.848Z,16.99
2023-02-25T15:17:21.602Z,16.92
2023-02-25T15:19:51.656Z,16.94
2023-02-25T15:22:21.129Z,16.89
2023-02-25T15:24:49.616Z,16.80
2023-02-25T15:27:36.189Z,16.65
2023-02-25T15:30:06.943Z,16.56
2023-02-25T15:33:02.008Z,16.55
2023-02-25T15:35:34.927Z,16.56
2023-02-25T15:38:14.714Z,16.49
2023-02-25T15:40:45.218Z,16.25
2023-02-25T15:43:15.376Z,16.32
2023-02-25T15:45:48.002Z,16.33
2023-02-25T15:48:21.246Z,16.24
2023-02-25T15:50:48.035Z,16.32
2023-02-25T15:53:21.307Z,16.20
2023-02-25T15:55:50.315Z,16.06
2023-02-25T15:58:43.165Z,16.07
2023-02-25T16:01:25.346Z,16.00
2023-02-25T16:03:53.028Z,16.01
2023-02-25T16:06:23.158Z,15.91
2023-02-25T16:09:06.946Z,15.84
2023-02-25T16:11:44.718Z,15.97
2023-02-25T16:14:28.851Z,15.93
2023-02-25T16:17:03.583Z,15.87
2023-02-25T16:19:35.955Z,15.79
2023-02-25T16:22:19.625Z,15.71
2023-02-25T16:24:50.145Z,15.78
2023-02-25T16:27:41.467Z,15.74
2023-02-25T16:30:17.536Z,15.60
2023-02-25T16:32:54.795Z,15.38
2023-02-25T16:35:25.485Z,15.30
2023-02-25T16:38:02.817Z,15.09
2023-02-25T16:40:35.584Z,14.89
2023-02-25T16:43:02.854Z,14.79
2023-02-25T16:45:34.134Z,14.75
2023-02-25T16:48:26.947Z,14.61
2023-02-25T16:50:54.932Z,14.61
2023-02-25T16:53:25.623Z,14.54
2023-02-25T16:55:59.060Z,14.50
2023-02-25T16:58:28.631Z,14.50
2023-02-25T17:01:01.934Z,14.36
2023-02-25T17:03:33.173Z,14.33
2023-02-25T17:06:00.277Z,14.30
2023-02-25T17:08:27.822Z,14.27
2023-02-25T17:10:56.803Z,14.31
2023-02-25T17:13:32.249Z,14.29
2023-02-25T17:16:00.841Z,14.23
2023-02-25T17:18:43.268Z,14.33
2023-02-25T17:21:22.708Z,14.32
2023-02-25T17:23:51.408Z,14.38
2023-02-25T17:26:19.521Z,14.43
2023-02-25T17:28:51.647Z,14.55
2023-02-25T17:31:26.898Z,14.59
2023-02-25T17:33:57.109Z,14.75
2023-02-25T17:36:28.793Z,14.69
2023-02-25T17:38:59.121Z,14.78
2023-02-25T17:41:26.880Z,14.72
2023-02-25T17:43:54.091Z,14.70
2023-02-25T17:46:36.324Z,14.73
2023-02-25T17:49:27.637Z,14.72
2023-02-25T17:51:57.675Z,14.93
2023-02-25T17:54:26.974Z,15.07
2023-02-25T17:57:19.959Z,15.07
2023-02-25T17:59:55.839Z,14.75
2023-02-25T18:02:51.449Z,15.03
2023-02-25T18:05:24.336Z,14.94
2023-02-25T18:08:09.373Z,14.91
2023-02-25T18:10:36.272Z,14.90
2023-02-25T18:13:05.082Z,14.76
2023-02-25T18:15:34.460Z,14.68
2023-02-25T18:18:04.481Z,14.67
2023-02-25T18:20:41.045Z,14.60
2023-02-25T18:23:21.009Z,14.44
2023-02-25T18:26:10.347Z,14.36
2023-02-25T18:28:38.483Z,14.28
2023-02-25T18:31:05.712Z,14.27
2023-02-25T18:33:32.850Z,14.22
2023-02-25T18:36:00.281Z,14.21
2023-02-25T18:38:31.486Z,14.14
2023-02-25T18:40:58.605Z,14.10
2023-02-25T18:43:30.930Z,13.96
2023-02-25T18:45:58.097Z,13.84
2023-02-25T18:48:24.954Z,13.74
2023-02-25T18:50:52.138Z,13.65
2023-02-25T18:53:24.087Z,13.53
2023-02-25T18:55:52.940Z,13.45
2023-02-25T18:58:21.403Z,13.31
2023-02-25T19:00:55.465Z,13.35
2023-02-25T19:03:28.870Z,13.24
2023-02-25T19:05:56.328Z,13.23
2023-02-25T19:08:23.527Z,13.12
2023-02-25T19:10:53.083Z,13.01
2023-02-25T19:13:28.916Z,12.94
2023-02-25T19:15:55.915Z,12.97
2023-02-25T19:18:23.168Z,12.95
2023-02-25T19:20:50.639Z,12.93
2023-02-25T19:23:18.712Z,12.87
2023-02-25T19:25:48.341Z,12.87
2023-02-25T19:28:15.159Z,12.81
2023-02-25T19:30:43.782Z,12.87
2023-02-25T19:33:12.522Z,12.80
2023-02-25T19:35:42.569Z,12.78
2023-02-25T19:38:17.117Z,12.71
2023-02-25T19:40:45.708Z,12.75
2023-02-25T19:43:12.833Z,12.67
2023-02-25T19:45:41.023Z,12.54
2023-02-25T19:48:08.741Z,12.36
2023-02-25T19:50:37.055Z,12.28
2023-02-25T19:53:05.657Z,12.22
2023-02-25T19:55:33.420Z,12.20
2023-02-25T19:58:00.519Z,12.14
2023-02-25T20:00:27.954Z,12.05
2023-02-25T20:02:56.279Z,12.18
2023-02-25T20:05:23.730Z,12.16
2023-02-25T20:07:51.330Z,12.16
2023-02-25T20:10:19.782Z,12.08
2023-02-25T20:12:48.066Z,12.09
2023-02-25T20:15:16.737Z,12.06
2023-02-25T20:17:45.745Z,12.01
2023-02-25T20:20:14.813Z,11.93
2023-02-25T20:22:42.322Z,11.80
2023-02-25T20:25:10.841Z,11.84
2023-02-25T20:27:39.906Z,11.74
2023-02-25T20:30:07.846Z,11.83
2023-02-25T20:32:34.915Z,11.83
2023-02-25T20:35:02.363Z,11.89
2023-02-25T20:37:33.113Z,11.94
2023-02-25T20:40:00.718Z,12.04
2023-02-25T20:42:30.213Z,12.13
2023-02-25T20:44:58.285Z,12.18
2023-02-25T20:47:35.029Z,12.30
2023-02-25T20:50:02.839Z,12.31
2023-02-25T20:52:29.964Z,12.44
2023-02-25T20:54:58.185Z,12.53
2023-02-25T20:57:26.826Z,12.50
2023-02-25T20:59:54.526Z,12.54
2023-02-25T21:02:22.031Z,12.50
2023-02-25T21:04:49.263Z,12.55
2023-02-25T21:07:16.438Z,12.56
2023-02-25T21:09:43.289Z,12.48
2023-02-25T21:12:10.266Z,12.47
2023-02-25T21:14:37.295Z,12.41
2023-02-25T21:17:09.401Z,12.39
2023-02-25T21:19:38.684Z,12.33
2023-02-25T21:22:06.877Z,12.30
2023-02-25T21:24:34.684Z,12.30
2023-02-25T21:27:01.840Z,12.26
2023-02-25T21:29:28.953Z,12.23
2023-02-25T21:31:55.795Z,12.19
2023-02-25T21:34:22.881Z,12.18
2023-02-25T21:36:49.727Z,12.27
2023-02-25T21:39:16.839Z,12.22
2023-02-25T21:41:45.137Z,12.15
2023-02-25T21:44:12.849Z,12.15
2023-02-25T21:46:40.965Z,12.04
2023-02-25T21:49:10.455Z,12.00
2023-02-25T21:51:37.560Z,11.95
2023-02-25T21:54:04.430Z,11.82
2023-02-25T21:56:31.821Z,11.82
2023-02-25T21:59:00.836Z,11.82
2023-02-25T22:01:30.518Z,11.87
2023-02-25T22:03:58.462Z,11.91
2023-02-25T22:06:26.297Z,11.92
2023-02-25T22:08:54.412Z,11.82
2023-02-25T22:11:24.959Z,11.79
2023-02-25T22:13:52.792Z,11.76
2023-02-25T22:16:21.090Z,11.72
2023-02-25T22:18:48.175Z,11.75
2023-02-25T22:21:36.091Z,11.76
2023-02-25T22:24:04.697Z,11.74
2023-02-25T22:26:33.533Z,11.63
2023-02-25T22:29:04.823Z,11.66
2023-02-25T22:31:32.899Z,11.56
2023-02-25T22:34:00.118Z,11.56
2023-02-25T22:36:27.690Z,11.57
2023-02-25T22:38:55.887Z,11.52
2023-02-25T22:41:25.613Z,11.49
2023-02-25T22:43:52.773Z,11.51
2023-02-25T22:46:29.476Z,11.42
2023-02-25T22:48:56.808Z,11.47
2023-02-25T22:51:35.962Z,11.37
2023-02-25T22:54:04.196Z,11.42
2023-02-25T22:56:30.984Z,11.44
2023-02-25T22:58:57.965Z,11.36
2023-02-25T23:01:25.917Z,11.42
2023-02-25T23:03:54.300Z,11.34
2023-02-25T23:06:34.265Z,11.32
2023-02-25T23:09:09.384Z,11.31
2023-02-25T23:11:36.230Z,11.33
2023-02-25T23:14:04.215Z,11.32
2023-02-25T23:16:37.116Z,11.30
2023-02-25T23:19:05.204Z,11.19
2023-02-25T23:21:33.393Z,11.15
2023-02-25T23:24:01.964Z,11.10
2023-02-25T23:26:36.677Z,11.06
2023-02-25T23:29:06.726Z,11.07
2023-02-25T23:31:38.953Z,10.97
2023-02-25T23:34:11.715Z,11.00
2023-02-25T23:36:40.195Z,10.97
2023-02-25T23:39:08.400Z,10.95
2023-02-25T23:41:36.424Z,10.86
2023-02-25T23:44:04.552Z,10.94
2023-02-25T23:46:32.703Z,11.00
2023-02-25T23:49:02.191Z,11.04
2023-02-25T23:51:29.337Z,11.11
2023-02-25T23:53:58.887Z,11.42
2023-02-25T23:56:29.661Z,11.67
2023-02-25T23:58:57.025Z,11.87
